Terminal Aerodrome Forecast
Issued by NWS

Current Version | Previous Version | Text Only | Print | Product List | Glossary Off
Versions: 1 2 3 4 5 6 7 8 9 10 11 12 13 14 15 16 17 18 19 20 21 22

000
FTUS41 KILN 252300
TAFLCK
TAF
KLCK 252330Z 2600/2624 08006KT 3SM -RA SCT007 OVC040
      TEMPO 2600/2602 2SM -RASN
     FM260200 02013G21KT 1SM -SN OVC005
      TEMPO 2604/2608 1/2SM SN OVC002
     FM261000 36014G20KT 5SM -SN OVC015
     FM261300 34011KT P6SM OVC012=

USA.gov is the U.S. government's official web portal to all federal, state and local government web resources and services.